createdAt,value
2019-04-10T00:00:44.363Z,91.30
2019-04-10T00:03:25.622Z,91.30
2019-04-10T00:05:44.574Z,91.30
2019-04-10T00:08:14.304Z,91.30
2019-04-10T00:10:43.764Z,91.30
2019-04-10T00:13:12.510Z,91.30
2019-04-10T00:15:40.962Z,91.40
2019-04-10T00:18:09.498Z,91.30
2019-04-10T00:20:38.057Z,91.30
2019-04-10T00:23:06.879Z,91.20
2019-04-10T00:25:35.670Z,91.30
2019-04-10T00:28:05.252Z,91.30
2019-04-10T00:30:33.959Z,91.30
2019-04-10T00:33:02.743Z,91.50
2019-04-10T00:35:31.683Z,91.60
2019-04-10T00:38:00.380Z,91.60
2019-04-10T00:40:28.858Z,91.70
2019-04-10T00:42:58.597Z,91.80
2019-04-10T00:45:27.342Z,91.80
2019-04-10T00:47:55.803Z,91.90
2019-04-10T00:50:24.503Z,91.90
2019-04-10T00:52:53.193Z,92.20
2019-04-10T00:55:21.823Z,92.20
2019-04-10T00:57:50.466Z,92.20
2019-04-10T01:00:19.801Z,92.60
2019-04-10T01:02:49.157Z,92.30
2019-04-10T01:05:17.818Z,92.50
2019-04-10T01:07:47.087Z,92.60
2019-04-10T01:10:16.333Z,92.60
2019-04-10T01:12:45.942Z,92.50
2019-04-10T01:15:14.738Z,92.50
2019-04-10T01:17:43.394Z,92.70
2019-04-10T01:20:13.316Z,92.70
2019-04-10T01:22:42.100Z,92.80
2019-04-10T01:25:10.628Z,92.90
2019-04-10T01:27:39.086Z,93.00
2019-04-10T01:30:08.752Z,93.00
2019-04-10T01:32:37.331Z,93.20
2019-04-10T01:35:07.827Z,93.20
2019-04-10T01:37:48.784Z,93.40
2019-04-10T01:40:08.726Z,93.50
2019-04-10T01:42:37.273Z,93.60
2019-04-10T01:45:07.203Z,93.80
2019-04-10T01:47:35.906Z,94.10
2019-04-10T01:50:06.257Z,94.20
2019-04-10T01:52:35.376Z,94.40
2019-04-10T01:55:17.219Z,94.60
2019-04-10T01:57:36.647Z,94.80
2019-04-10T02:00:09.239Z,94.90
2019-04-10T02:02:47.665Z,95.20
2019-04-10T02:05:36.582Z,95.30
2019-04-10T02:08:08.973Z,95.40
2019-04-10T02:10:36.414Z,95.70
2019-04-10T02:13:05.413Z,96.00
2019-04-10T02:15:34.269Z,96.10
2019-04-10T02:18:10.916Z,96.10
2019-04-10T02:20:39.589Z,96.40
2019-04-10T02:23:08.049Z,96.60
2019-04-10T02:25:36.957Z,96.90
2019-04-10T02:28:05.632Z,97.10
2019-04-10T02:30:54.491Z,97.30
2019-04-10T02:33:23.335Z,97.60
2019-04-10T02:35:52.610Z,97.90
2019-04-10T02:38:38.984Z,98.10
2019-04-10T02:40:52.836Z,98.50
2019-04-10T02:43:23.159Z,98.90
2019-04-10T02:45:51.921Z,99.00
2019-04-10T02:48:20.844Z,99.30
2019-04-10T02:50:51.349Z,99.30
2019-04-10T02:53:21.574Z,99.50
2019-04-10T02:55:51.602Z,99.90
2019-04-10T02:58:20.585Z,99.90
2019-04-10T03:00:51.875Z,99.90
2019-04-10T03:03:20.126Z,99.90
2019-04-10T03:05:48.940Z,99.90
2019-04-10T03:08:17.509Z,99.90
2019-04-10T03:10:53.059Z,99.90
2019-04-10T03:13:17.774Z,99.90
2019-04-10T03:15:47.666Z,99.90
2019-04-10T03:18:16.823Z,99.90
2019-04-10T03:20:46.715Z,99.90
2019-04-10T03:23:15.646Z,99.90
2019-04-10T03:25:45.392Z,99.90
2019-04-10T03:28:14.595Z,99.90
2019-04-10T03:30:44.364Z,99.90
2019-04-10T03:33:24.572Z,99.90
2019-04-10T03:35:53.091Z,99.90
2019-04-10T03:38:21.730Z,99.90
2019-04-10T03:40:51.336Z,99.90
2019-04-10T03:43:20.043Z,99.90
2019-04-10T03:45:48.672Z,99.90
2019-04-10T03:48:17.252Z,99.90
2019-04-10T03:50:45.932Z,99.90
2019-04-10T03:53:14.513Z,99.90
2019-04-10T03:55:43.280Z,99.90
2019-04-10T03:58:11.846Z,99.90
2019-04-10T04:00:40.489Z,99.90
2019-04-10T04:03:09.286Z,99.90
2019-04-10T04:05:37.738Z,99.90
2019-04-10T04:08:06.208Z,99.90
2019-04-10T04:10:35.059Z,99.90
2019-04-10T04:13:05.734Z,99.90
2019-04-10T04:15:34.335Z,99.90
2019-04-10T04:18:02.795Z,99.90
2019-04-10T04:20:31.884Z,99.90
2019-04-10T04:23:01.250Z,99.90
2019-04-10T04:25:30.541Z,99.90
2019-04-10T04:27:59.039Z,99.90
2019-04-10T04:30:27.658Z,99.90
2019-04-10T04:32:56.137Z,99.90
2019-04-10T04:35:25.641Z,99.90
2019-04-10T04:37:54.939Z,99.90
2019-04-10T04:40:23.829Z,99.90
2019-04-10T04:42:53.558Z,99.90
2019-04-10T04:45:22.164Z,99.90
2019-04-10T04:47:50.703Z,99.90
2019-04-10T04:50:19.974Z,99.90
2019-04-10T04:52:49.317Z,99.90
2019-04-10T04:55:17.927Z,99.90
2019-04-10T04:57:47.120Z,99.90
2019-04-10T05:00:17.279Z,99.90
2019-04-10T05:02:48.966Z,99.90
2019-04-10T05:05:18.465Z,99.90
2019-04-10T05:07:56.370Z,99.90
2019-04-10T05:10:17.454Z,99.90
2019-04-10T05:12:45.974Z,99.90
2019-04-10T05:15:14.926Z,99.90
2019-04-10T05:17:43.606Z,99.90
2019-04-10T05:20:12.444Z,99.90
2019-04-10T05:22:41.650Z,99.90
2019-04-10T05:25:11.144Z,99.90
2019-04-10T05:27:39.657Z,99.90
2019-04-10T05:30:08.510Z,99.90
2019-04-10T05:32:37.602Z,99.90
2019-04-10T05:35:09.750Z,99.90
2019-04-10T05:37:37.935Z,99.90
2019-04-10T05:40:07.806Z,99.90
2019-04-10T05:42:37.294Z,99.90
2019-04-10T05:45:07.533Z,99.90
2019-04-10T05:47:36.648Z,99.90
2019-04-10T05:50:06.265Z,99.90
2019-04-10T05:52:35.368Z,99.90
2019-04-10T05:55:04.803Z,99.90
2019-04-10T05:57:33.321Z,99.90
2019-04-10T06:00:02.697Z,99.90
2019-04-10T06:02:32.124Z,99.90
2019-04-10T06:05:00.672Z,99.90
2019-04-10T06:07:29.422Z,99.90
2019-04-10T06:10:04.038Z,99.90
2019-04-10T06:12:28.579Z,99.90
2019-04-10T06:14:57.437Z,99.90
2019-04-10T06:17:26.820Z,99.90
2019-04-10T06:19:56.669Z,99.90
2019-04-10T06:22:26.423Z,99.90
2019-04-10T06:24:56.444Z,99.90
2019-04-10T06:27:26.183Z,99.90
2019-04-10T06:29:55.255Z,99.90
2019-04-10T06:32:25.392Z,99.60
2019-04-10T06:34:55.253Z,99.30
2019-04-10T06:37:24.227Z,99.10
2019-04-10T06:40:05.060Z,99.00
2019-04-10T06:42:22.952Z,98.60
2019-04-10T06:44:52.341Z,98.30
2019-04-10T06:47:20.843Z,97.70
2019-04-10T06:49:50.426Z,97.60
2019-04-10T06:52:19.109Z,97.10
2019-04-10T06:54:47.570Z,96.70
2019-04-10T06:57:16.717Z,96.20
2019-04-10T06:59:46.100Z,95.80
2019-04-10T07:02:23.720Z,95.60
2019-04-10T07:04:52.582Z,94.90
2019-04-10T07:07:18.062Z,94.80
2019-04-10T07:09:45.430Z,94.40
2019-04-10T07:12:14.381Z,94.10
2019-04-10T07:14:45.518Z,93.80
2019-04-10T07:17:14.372Z,93.50
2019-04-10T07:19:45.301Z,92.70
2019-04-10T07:22:14.717Z,92.50
2019-04-10T07:24:44.028Z,92.30
2019-04-10T07:27:13.927Z,92.10
2019-04-10T07:29:42.578Z,92.10
2019-04-10T07:32:12.290Z,92.30
2019-04-10T07:34:42.442Z,92.20
2019-04-10T07:37:14.696Z,91.70
2019-04-10T07:39:41.568Z,91.40
2019-04-10T07:42:10.333Z,91.10
2019-04-10T07:44:38.794Z,91.10
2019-04-10T07:47:07.304Z,90.80
2019-04-10T07:49:38.139Z,90.70
2019-04-10T07:52:06.080Z,90.40
2019-04-10T07:54:35.062Z,90.20
2019-04-10T07:57:23.019Z,89.50
2019-04-10T07:59:52.585Z,89.60
2019-04-10T08:02:21.306Z,89.30
2019-04-10T08:04:50.003Z,89.90
2019-04-10T08:07:26.670Z,89.40
2019-04-10T08:09:49.732Z,87.50
2019-04-10T08:12:19.004Z,87.40
2019-04-10T08:14:50.446Z,87.80
2019-04-10T08:17:19.686Z,87.10
2019-04-10T08:19:48.789Z,85.50
2019-04-10T08:22:17.981Z,85.50
2019-04-10T08:24:47.314Z,85.40
2019-04-10T08:27:17.132Z,84.80
2019-04-10T08:29:46.223Z,84.20
2019-04-10T08:32:15.964Z,83.60
2019-04-10T08:34:44.774Z,83.00
2019-04-10T08:37:14.424Z,82.70
2019-04-10T08:39:46.490Z,80.90
2019-04-10T08:42:14.500Z,80.60
2019-04-10T08:44:44.480Z,79.90
2019-04-10T08:47:13.093Z,80.00
2019-04-10T08:49:41.619Z,77.90
2019-04-10T08:52:10.340Z,75.90
2019-04-10T08:54:39.121Z,76.50
2019-04-10T08:57:07.568Z,76.80
2019-04-10T08:59:36.899Z,77.60
2019-04-10T09:02:06.075Z,77.90
2019-04-10T09:04:34.818Z,77.60
2019-04-10T09:07:04.266Z,77.80
2019-04-10T09:09:33.932Z,76.50
2019-04-10T09:12:02.691Z,76.10
2019-04-10T09:14:31.139Z,77.10
2019-04-10T09:17:00.627Z,76.60
2019-04-10T09:19:29.993Z,75.20
2019-04-10T09:21:59.508Z,74.10
2019-04-10T09:24:28.092Z,73.30
2019-04-10T09:26:57.083Z,72.80
2019-04-10T09:29:26.142Z,71.80
2019-04-10T09:31:55.564Z,71.00
2019-04-10T09:34:25.579Z,70.20
2019-04-10T09:36:54.487Z,70.30
2019-04-10T09:39:23.359Z,69.50
2019-04-10T09:41:52.427Z,69.40
2019-04-10T09:44:21.166Z,70.40
2019-04-10T09:46:49.690Z,70.30
2019-04-10T09:49:30.412Z,70.90
2019-04-10T09:51:48.326Z,71.50
2019-04-10T09:54:17.527Z,70.80
2019-04-10T09:56:46.351Z,71.20
2019-04-10T09:59:16.028Z,71.20
2019-04-10T10:01:44.832Z,71.10
2019-04-10T10:04:13.333Z,70.90
2019-04-10T10:06:41.802Z,70.60
2019-04-10T10:09:10.556Z,70.80
2019-04-10T10:11:39.185Z,70.40
2019-04-10T10:14:07.744Z,70.10
2019-04-10T10:16:36.287Z,69.80
2019-04-10T10:19:05.757Z,69.00
2019-04-10T10:21:34.634Z,68.60
2019-04-10T10:24:04.492Z,68.70
2019-04-10T10:26:34.319Z,68.10
2019-04-10T10:29:03.191Z,68.20
2019-04-10T10:31:32.484Z,68.10
2019-04-10T10:34:01.901Z,68.00
2019-04-10T10:36:39.602Z,67.70
2019-04-10T10:39:07.139Z,67.80
2019-04-10T10:41:31.883Z,67.50
2019-04-10T10:44:00.628Z,68.00
2019-04-10T10:46:29.325Z,68.00
2019-04-10T10:48:58.072Z,68.00
2019-04-10T10:51:26.819Z,68.10
2019-04-10T10:53:56.590Z,67.20
2019-04-10T10:56:26.311Z,67.20
2019-04-10T10:58:57.816Z,66.80
2019-04-10T11:01:25.541Z,66.10
2019-04-10T11:03:54.197Z,65.80
2019-04-10T11:06:22.948Z,65.60
2019-04-10T11:08:51.536Z,65.00
2019-04-10T11:11:20.088Z,64.30
2019-04-10T11:13:48.782Z,63.40
2019-04-10T11:16:17.300Z,62.80
2019-04-10T11:18:46.882Z,61.70
2019-04-10T11:21:16.856Z,61.00
2019-04-10T11:23:46.611Z,60.70
2019-04-10T11:26:20.019Z,60.40
2019-04-10T11:28:45.693Z,60.80
2019-04-10T11:31:15.811Z,60.80
2019-04-10T11:33:49.862Z,60.60
2019-04-10T11:36:15.216Z,61.50
2019-04-10T11:38:46.577Z,61.20
2019-04-10T11:41:17.638Z,61.80
2019-04-10T11:43:46.619Z,60.40
2019-04-10T11:46:15.513Z,59.50
2019-04-10T11:48:45.524Z,59.10
2019-04-10T11:51:14.810Z,58.10
2019-04-10T11:53:45.403Z,57.20
2019-04-10T11:56:13.854Z,55.90
2019-04-10T12:01:13.033Z,51.60
2019-04-10T12:03:48.277Z,50.40
2019-04-10T12:06:13.181Z,49.00
2019-04-10T12:09:04.439Z,47.40
2019-04-10T12:11:15.533Z,45.70
2019-04-10T12:13:42.774Z,43.60
2019-04-10T12:16:11.326Z,42.20
2019-04-10T12:18:40.547Z,41.80
2019-04-10T12:21:09.373Z,40.70
2019-04-10T12:23:37.937Z,40.20
2019-04-10T12:26:07.438Z,39.00
2019-04-10T12:28:36.147Z,38.60
2019-04-10T12:31:05.892Z,38.00
2019-04-10T12:33:35.924Z,37.40
2019-04-10T12:36:07.226Z,37.10
2019-04-10T12:38:35.977Z,37.00
2019-04-10T12:41:05.270Z,36.90
2019-04-10T12:43:34.693Z,36.80
2019-04-10T12:46:04.461Z,37.10
2019-04-10T12:48:33.239Z,37.80
2019-04-10T12:51:01.764Z,37.60
2019-04-10T12:53:30.343Z,37.30
2019-04-10T12:55:59.739Z,37.40
2019-04-10T12:58:28.885Z,37.10
2019-04-10T13:00:58.391Z,36.60
2019-04-10T13:03:27.318Z,36.20
2019-04-10T13:05:55.941Z,36.00
2019-04-10T13:08:31.372Z,35.70
2019-04-10T13:10:54.630Z,36.50
2019-04-10T13:13:24.154Z,36.90
2019-04-10T13:15:54.093Z,36.80
2019-04-10T13:18:22.742Z,36.90
2019-04-10T13:20:51.184Z,36.50
2019-04-10T13:23:20.484Z,36.80
2019-04-10T13:25:55.337Z,36.90
2019-04-10T13:28:19.348Z,37.80
2019-04-10T13:30:53.190Z,38.20
2019-04-10T13:33:18.075Z,38.40
2019-04-10T13:35:46.685Z,38.70
2019-04-10T13:38:25.743Z,38.80
2019-04-10T13:40:45.941Z,39.10
2019-04-10T13:43:14.531Z,39.60
2019-04-10T13:45:43.819Z,40.40
2019-04-10T13:48:13.141Z,41.10
2019-04-10T13:50:43.169Z,41.80
2019-04-10T13:53:11.814Z,42.90
2019-04-10T13:55:40.278Z,43.60
2019-04-10T13:58:08.889Z,43.50
2019-04-10T14:00:40.710Z,44.30
2019-04-10T14:03:10.140Z,45.10
2019-04-10T14:05:39.067Z,45.60
2019-04-10T14:08:08.436Z,45.90
2019-04-10T14:10:40.796Z,46.50
2019-04-10T14:13:07.524Z,46.70
2019-04-10T14:15:36.312Z,47.20
2019-04-10T14:18:06.118Z,47.30
2019-04-10T14:20:41.523Z,47.70
2019-04-10T14:23:12.576Z,47.30
2019-04-10T14:26:00.485Z,48.00
2019-04-10T14:28:31.276Z,47.80
2019-04-10T14:31:02.057Z,47.80
2019-04-10T14:33:30.910Z,47.80
2019-04-10T14:36:00.008Z,47.80
2019-04-10T14:38:28.642Z,47.90
2019-04-10T14:40:57.747Z,47.80
2019-04-10T14:43:26.671Z,47.90
2019-04-10T14:45:55.170Z,47.80
2019-04-10T14:48:24.433Z,48.30
2019-04-10T14:50:52.970Z,48.50
2019-04-10T14:53:22.431Z,49.70
2019-04-10T14:55:51.481Z,50.20
2019-04-10T14:58:26.335Z,50.60
2019-04-10T15:00:50.498Z,50.80
2019-04-10T15:03:20.240Z,51.10
2019-04-10T15:05:51.447Z,51.00
2019-04-10T15:08:19.669Z,52.10
2019-04-10T15:10:48.669Z,52.70
2019-04-10T15:13:20.755Z,52.80
2019-04-10T15:15:48.274Z,53.20
2019-04-10T15:18:17.055Z,53.40
2019-04-10T15:20:45.596Z,53.40
2019-04-10T15:23:15.289Z,53.40
2019-04-10T15:25:44.107Z,53.40
2019-04-10T15:28:13.973Z,53.80
2019-04-10T15:30:42.684Z,54.10
2019-04-10T15:33:12.045Z,54.70
2019-04-10T15:35:41.799Z,54.80
2019-04-10T15:38:11.699Z,55.40
2019-04-10T15:40:40.382Z,55.70
2019-04-10T15:43:08.905Z,56.00
2019-04-10T15:45:37.889Z,56.30
2019-04-10T15:48:06.564Z,56.90
2019-04-10T15:50:35.119Z,57.30
2019-04-10T15:53:04.088Z,57.60
2019-04-10T15:55:33.293Z,58.10
2019-04-10T15:58:03.649Z,58.50
2019-04-10T16:00:33.023Z,58.80
2019-04-10T16:03:02.859Z,59.40
2019-04-10T16:05:31.750Z,59.60
2019-04-10T16:08:00.800Z,59.90
2019-04-10T16:10:31.261Z,60.00
2019-04-10T16:13:01.481Z,60.60
2019-04-10T16:15:31.694Z,61.30
2019-04-10T16:18:07.724Z,61.50
2019-04-10T16:20:36.919Z,62.00
2019-04-10T16:23:16.381Z,62.50
2019-04-10T16:25:47.479Z,63.20
2019-04-10T16:28:17.834Z,63.40
2019-04-10T16:30:46.629Z,63.90
2019-04-10T16:33:15.170Z,63.90
2019-04-10T16:35:44.043Z,64.10
2019-04-10T16:38:12.876Z,64.30
2019-04-10T16:40:41.330Z,64.40
2019-04-10T16:43:10.046Z,64.90
2019-04-10T16:45:38.682Z,65.60
2019-04-10T16:48:08.472Z,66.40
2019-04-10T16:50:38.270Z,67.60
2019-04-10T16:53:27.845Z,67.70
2019-04-10T16:55:56.903Z,68.10
2019-04-10T16:58:25.671Z,69.00
2019-04-10T17:00:54.224Z,69.30
2019-04-10T17:03:23.004Z,69.70
2019-04-10T17:05:51.465Z,70.30
2019-04-10T17:08:20.042Z,70.70
2019-04-10T17:10:48.504Z,71.40
2019-04-10T17:13:18.221Z,71.70
2019-04-10T17:15:48.698Z,72.30
2019-04-10T17:18:17.288Z,72.50
2019-04-10T17:20:46.847Z,72.90
2019-04-10T17:23:16.409Z,73.40
2019-04-10T17:25:45.070Z,73.90
2019-04-10T17:28:14.278Z,74.00
2019-04-10T17:30:44.126Z,74.20
2019-04-10T17:33:13.220Z,74.10
2019-04-10T17:35:41.878Z,74.30
2019-04-10T17:38:10.404Z,74.80
2019-04-10T17:40:47.718Z,74.90
2019-04-10T17:43:09.105Z,75.20
2019-04-10T17:45:38.548Z,75.90
2019-04-10T17:48:07.514Z,76.50
2019-04-10T17:50:37.167Z,76.80
2019-04-10T17:53:07.252Z,77.20
2019-04-10T17:55:35.990Z,77.00
2019-04-10T17:58:05.384Z,77.10
2019-04-10T18:00:35.641Z,77.50
2019-04-10T18:03:05.322Z,78.00
2019-04-10T18:05:34.981Z,78.40
2019-04-10T18:08:05.009Z,78.60
2019-04-10T18:10:43.461Z,78.70
2019-04-10T18:13:05.142Z,78.70
2019-04-10T18:15:33.859Z,79.20
2019-04-10T18:18:03.266Z,79.50
2019-04-10T18:20:32.173Z,80.10
2019-04-10T18:23:00.961Z,80.30
2019-04-10T18:25:49.917Z,81.10
2019-04-10T18:28:19.213Z,81.40
2019-04-10T18:30:48.198Z,81.90
2019-04-10T18:33:16.879Z,82.50
2019-04-10T18:35:45.370Z,82.90
2019-04-10T18:38:13.881Z,83.30
2019-04-10T18:40:52.151Z,83.80
2019-04-10T18:43:12.551Z,84.20
2019-04-10T18:45:54.032Z,84.50
2019-04-10T18:48:11.343Z,85.00
2019-04-10T18:50:40.558Z,85.50
2019-04-10T18:53:09.339Z,85.70
2019-04-10T18:55:38.660Z,86.40
2019-04-10T18:58:09.616Z,86.40
2019-04-10T19:00:40.692Z,86.40
2019-04-10T19:03:13.724Z,86.40
2019-04-10T19:05:46.434Z,86.50
2019-04-10T19:08:16.336Z,86.50
2019-04-10T19:10:45.490Z,86.50
2019-04-10T19:13:15.070Z,86.50
2019-04-10T19:15:44.855Z,86.60
2019-04-10T19:18:13.570Z,87.00
2019-04-10T19:20:42.955Z,87.20
2019-04-10T19:23:11.457Z,87.60
2019-04-10T19:25:40.887Z,87.80
2019-04-10T19:28:10.524Z,87.90
2019-04-10T19:30:41.492Z,87.90
2019-04-10T19:33:10.606Z,88.00
2019-04-10T19:35:39.278Z,88.30
2019-04-10T19:38:07.898Z,88.40
2019-04-10T19:40:38.332Z,88.50
2019-04-10T19:43:08.292Z,88.50
2019-04-10T19:45:37.078Z,88.70
2019-04-10T19:48:06.769Z,88.90
2019-04-10T19:50:35.319Z,88.90
2019-04-10T19:53:04.753Z,88.90
2019-04-10T19:55:33.359Z,89.10
2019-04-10T19:58:01.890Z,89.20
2019-04-10T20:00:33.182Z,89.30
2019-04-10T20:03:01.650Z,89.30
2019-04-10T20:05:30.184Z,89.30
2019-04-10T20:07:59.663Z,89.40
2019-04-10T20:10:28.234Z,89.50
2019-04-10T20:12:57.253Z,89.60
2019-04-10T20:15:26.704Z,89.70
2019-04-10T20:17:56.615Z,89.90
2019-04-10T20:20:25.131Z,89.90
2019-04-10T20:22:53.755Z,89.90
2019-04-10T20:25:22.227Z,90.30
2019-04-10T20:27:50.749Z,90.00
2019-04-10T20:30:21.051Z,90.10
2019-04-10T20:32:50.210Z,90.20
2019-04-10T20:35:20.219Z,90.10
2019-04-10T20:37:49.169Z,90.20
2019-04-10T20:40:19.138Z,90.20
2019-04-10T20:42:48.727Z,90.20
2019-04-10T20:45:17.881Z,90.30
2019-04-10T20:47:49.803Z,90.40
2019-04-10T20:50:19.581Z,90.50
2019-04-10T20:52:48.337Z,90.70
2019-04-10T20:55:17.475Z,90.60
2019-04-10T20:57:46.186Z,90.60
2019-04-10T21:00:20.273Z,90.60
2019-04-10T21:02:49.070Z,90.50
2019-04-10T21:05:17.993Z,90.50
2019-04-10T21:07:46.575Z,90.50
2019-04-10T21:10:15.112Z,90.60
2019-04-10T21:12:44.122Z,90.60
2019-04-10T21:15:13.222Z,90.80
2019-04-10T21:17:42.438Z,91.10
2019-04-10T21:20:13.288Z,91.20
2019-04-10T21:22:41.569Z,91.50
2019-04-10T21:25:10.288Z,91.70
2019-04-10T21:27:39.779Z,91.90
2019-04-10T21:30:20.549Z,92.10
2019-04-10T21:32:52.915Z,92.30
2019-04-10T21:35:22.888Z,92.40
2019-04-10T21:37:52.797Z,92.40
2019-04-10T21:40:21.359Z,92.70
2019-04-10T21:42:49.810Z,93.10
2019-04-10T21:45:18.264Z,93.40
2019-04-10T21:47:48.072Z,93.50
2019-04-10T21:50:18.502Z,93.80
2019-04-10T21:52:47.634Z,93.90
2019-04-10T21:55:17.066Z,93.90
2019-04-10T21:57:46.829Z,94.10
2019-04-10T22:00:18.436Z,94.30
2019-04-10T22:02:46.989Z,94.30
2019-04-10T22:05:16.443Z,94.50
2019-04-10T22:07:50.288Z,94.50
2019-04-10T22:10:36.297Z,94.70
2019-04-10T22:13:05.877Z,94.80
2019-04-10T22:15:37.205Z,95.00
2019-04-10T22:18:07.179Z,95.10
2019-04-10T22:20:36.084Z,95.50
2019-04-10T22:23:04.754Z,95.60
2019-04-10T22:25:33.217Z,95.80
2019-04-10T22:28:01.742Z,95.90
2019-04-10T22:30:30.197Z,96.00
2019-04-10T22:32:59.730Z,96.20
2019-04-10T22:35:28.392Z,96.40
2019-04-10T22:37:56.917Z,96.40
2019-04-10T22:40:26.122Z,96.70
2019-04-10T22:42:55.426Z,96.70
2019-04-10T22:45:27.970Z,96.90
2019-04-10T22:47:58.461Z,96.90
2019-04-10T22:50:27.577Z,97.10
2019-04-10T22:52:57.531Z,97.20
2019-04-10T22:55:26.130Z,97.20
2019-04-10T22:57:54.862Z,97.30
2019-04-10T23:00:25.303Z,97.50
2019-04-10T23:02:53.778Z,97.40
2019-04-10T23:05:22.656Z,97.50
2019-04-10T23:07:51.478Z,97.70
2019-04-10T23:10:21.131Z,97.80
2019-04-10T23:12:58.922Z,97.90
2019-04-10T23:15:20.118Z,98.20
2019-04-10T23:17:48.703Z,98.20
2019-04-10T23:20:18.329Z,98.30
2019-04-10T23:22:48.740Z,98.30
2019-04-10T23:25:18.314Z,98.40
2019-04-10T23:27:48.026Z,98.40
2019-04-10T23:30:18.730Z,98.40
2019-04-10T23:32:48.438Z,98.40
2019-04-10T23:35:17.163Z,98.40
2019-04-10T23:37:46.866Z,98.50
2019-04-10T23:40:16.841Z,98.60
2019-04-10T23:43:04.775Z,98.80
2019-04-10T23:45:25.884Z,98.90
2019-04-10T23:47:54.799Z,99.00
2019-04-10T23:50:23.958Z,99.10
2019-04-10T23:52:52.904Z,99.30
2019-04-10T23:55:21.875Z,99.40
2019-04-10T23:57:50.364Z,99.70
